Opasatika, Canada
Current Conditions -  °F | °C
As of 7:00 AM on Saturday 22 Nov 2014 (Local Time) from CYYU Reporting Station
Blowing Snow Blowing Snow  
Wind Chill: 20°   Ceiling: 2500
Heat Index: 32°   Visibility: 15mi
Dew Point: 27°   Wind: 20mph
Humidity: 80%   Direction: 250°WSW
Pressure: 29.55"   Gusts: 28mph
Location:  49.53°N, 82.87°W
Report Text: CYYU 221200Z 25017G24KT 15SM DRSN OVC025 M00/M03 A2955 RMK SC8 SLP021
Loading
Personal Weather Stations






























Interactive Weather Map New forecast layout! Learn more

10-Day Weather Forecast

Advertisements
Track Severe Weather on mobile